TAF LFBT
AMD LFBT 280722Z 2807/2906 25010KT 9999 SCT007 BKN025 BKN045 TEMPO 2807/2812 -RADZ BKN007 PROB40 TEMPO 2807/2811 2000 SN BKN004 TEMPO 2812/2816 FEW017CB SCT020TCU PROB40 TEMPO 2812/2816 4000 SHRASN BKN006 BKN012 BKN020TCU TEMPO 2818/2904 4000 SNRA BKN007 PROB40 TEMPO 2818/2904 1000 SN OVC003=
METAR LFBT
LFBT 280900Z AUTO 25010KT 9999 FEW017/// BKN039/// BKN058/// ///TCU 02/01 Q1011 TEMPO 2000 SN BKN004=
LFBT 280830Z AUTO 28008KT 240V300 6000 -SNRA BKN015/// BKN023/// OVC041/// ///TCU 02/01 Q1011 TEMPO 2000 SN BKN004=
LFBT 280800Z AUTO 26011KT 9999 -RA FEW024/// BKN037/// BKN045/// ///TCU 02/01 Q1011 TEMPO 2000 SN BKN004=
LFBT 280730Z AUTO 24011KT 9999 FEW006 BKN049 OVC084 02/01 Q1010 TEMPO 2000 RASN BKN008=
LFBT 280700Z AUTO 25010KT 9999 BKN007 OVC041 02/01 Q1010 TEMPO 2000 RASN=
WC LFBT
WS LFBT
WV LFBT